createdAt,value
2018-07-05T00:00:05.940Z,4.40
2018-07-05T00:04:51.280Z,4.20
2018-07-05T00:09:36.440Z,4.15
2018-07-05T00:14:21.829Z,4.97
2018-07-05T00:19:07.121Z,4.70
2018-07-05T00:23:52.521Z,4.70
2018-07-05T00:28:37.836Z,4.15
2018-07-05T00:33:23.240Z,4.03
2018-07-05T00:38:08.557Z,4.20
2018-07-05T00:42:54.050Z,3.90
2018-07-05T00:47:39.737Z,4.15
2018-07-05T00:52:25.165Z,4.65
2018-07-05T00:57:10.722Z,5.70
2018-07-05T01:01:56.337Z,5.10
2018-07-05T01:06:41.509Z,5.47
2018-07-05T01:11:26.900Z,5.85
2018-07-05T01:16:12.054Z,6.72
2018-07-05T01:20:57.458Z,6.42
2018-07-05T01:25:42.873Z,6.50
2018-07-05T01:30:28.325Z,6.87
2018-07-05T01:35:13.730Z,6.40
2018-07-05T01:39:59.161Z,6.20
2018-07-05T01:44:44.472Z,5.92
2018-07-05T01:49:29.725Z,5.92
2018-07-05T01:54:15.113Z,5.70
2018-07-05T01:59:00.399Z,5.37
2018-07-05T02:03:45.657Z,4.80
2018-07-05T02:08:31.073Z,5.70
2018-07-05T02:13:16.452Z,6.10
2018-07-05T02:18:01.842Z,6.30
2018-07-05T02:22:47.098Z,6.10
2018-07-05T02:27:32.726Z,6.40
2018-07-05T02:32:17.985Z,5.47
2018-07-05T02:37:03.257Z,5.05
2018-07-05T02:41:48.775Z,5.20
2018-07-05T02:46:34.442Z,5.60
2018-07-05T02:51:19.997Z,5.70
2018-07-05T02:56:05.653Z,6.30
2018-07-05T03:00:51.033Z,6.30
2018-07-05T03:05:36.644Z,6.42
2018-07-05T03:10:22.141Z,7.08
2018-07-05T03:15:07.718Z,8.18
2018-07-05T03:19:53.185Z,8.48
2018-07-05T03:24:32.581Z,10.13
2018-07-05T03:29:18.379Z,17.35
2018-07-05T03:34:04.137Z,9.60
2018-07-05T03:38:49.917Z,8.50
2018-07-05T03:43:35.857Z,9.25
2018-07-05T03:48:21.573Z,8.73
2018-07-05T03:53:07.034Z,8.78
2018-07-05T03:57:46.545Z,10.13
2018-07-05T04:02:31.918Z,10.08
2018-07-05T04:07:17.442Z,10.00
2018-07-05T04:12:02.970Z,9.98
2018-07-05T04:16:48.698Z,9.98
2018-07-05T04:21:34.492Z,9.58
2018-07-05T04:26:20.097Z,9.28
2018-07-05T04:31:05.533Z,11.30
2018-07-05T04:35:51.088Z,10.40
2018-07-05T04:40:36.549Z,10.75
2018-07-05T04:45:22.606Z,11.53
2018-07-05T04:50:08.087Z,10.98
2018-07-05T04:54:54.377Z,11.08
2018-07-05T04:59:39.909Z,13.75
2018-07-05T05:04:25.842Z,12.63
2018-07-05T05:09:11.389Z,11.40
2018-07-05T05:13:57.345Z,9.98
2018-07-05T05:18:43.034Z,10.03
2018-07-05T05:23:28.836Z,10.25
2018-07-05T05:28:14.361Z,9.30
2018-07-05T05:33:01.803Z,10.48
2018-07-05T05:37:47.289Z,11.05
2018-07-05T05:42:32.666Z,10.30
2018-07-05T05:47:18.709Z,10.88
2018-07-05T05:51:59.916Z,9.73
2018-07-05T05:56:45.449Z,9.48
2018-07-05T06:01:30.748Z,10.53
2018-07-05T06:06:16.726Z,8.78
2018-07-05T06:11:02.231Z,8.75
2018-07-05T06:15:47.728Z,9.75
2018-07-05T06:20:33.062Z,9.20
2018-07-05T06:25:18.349Z,9.38
2018-07-05T06:30:03.725Z,9.00
2018-07-05T06:34:49.362Z,9.65
2018-07-05T06:39:35.260Z,8.95
2018-07-05T06:44:20.701Z,9.38
2018-07-05T06:49:06.372Z,9.65
2018-07-05T06:53:51.871Z,9.28
2018-07-05T06:58:37.389Z,7.65
2018-07-05T07:03:23.025Z,8.43
2018-07-05T07:08:09.091Z,8.18
2018-07-05T07:12:54.325Z,7.85
2018-07-05T07:17:40.075Z,8.25
2018-07-05T07:22:25.434Z,8.43
2018-07-05T07:27:10.982Z,8.73
2018-07-05T07:31:56.725Z,9.10
2018-07-05T07:36:42.201Z,8.88
2018-07-05T07:41:27.865Z,8.43
2018-07-05T07:46:00.889Z,9.30
2018-07-05T07:50:33.953Z,8.73
2018-07-05T07:55:06.998Z,9.45
2018-07-05T07:59:40.066Z,9.35
2018-07-05T08:04:13.282Z,10.38
2018-07-05T08:08:46.363Z,10.23
2018-07-05T08:13:19.385Z,9.35
2018-07-05T08:17:52.474Z,10.58
2018-07-05T08:22:25.475Z,10.50
2018-07-05T08:26:58.574Z,10.23
2018-07-05T08:31:31.798Z,10.13
2018-07-05T08:36:04.726Z,9.95
2018-07-05T08:40:37.913Z,9.88
2018-07-05T08:45:10.956Z,10.90
2018-07-05T08:49:44.097Z,10.28
2018-07-05T08:54:17.154Z,9.48
2018-07-05T08:58:50.332Z,10.05
2018-07-05T09:03:23.406Z,9.85
2018-07-05T09:07:56.455Z,9.80
2018-07-05T09:12:29.618Z,9.30
2018-07-05T09:17:02.850Z,9.08
2018-07-05T09:21:35.930Z,8.00
2018-07-05T09:26:09.211Z,7.25
2018-07-05T09:30:42.600Z,6.85
2018-07-05T09:35:15.650Z,7.22
2018-07-05T09:39:48.690Z,7.35
2018-07-05T09:44:21.733Z,6.67
2018-07-05T09:48:54.756Z,6.05
2018-07-05T09:53:27.803Z,5.67
2018-07-05T09:58:00.882Z,5.50
2018-07-05T10:02:34.004Z,5.37
2018-07-05T10:07:07.152Z,5.47
2018-07-05T10:11:40.620Z,5.87
2018-07-05T10:16:14.050Z,5.10
2018-07-05T10:20:47.529Z,5.03
2018-07-05T10:25:20.757Z,5.25
2018-07-05T10:30:06.625Z,5.55
2018-07-05T10:34:39.788Z,5.33
2018-07-05T10:39:13.111Z,5.12
2018-07-05T10:43:52.973Z,5.33
2018-07-05T10:48:32.487Z,5.60
2018-07-05T10:53:18.222Z,5.20
2018-07-05T10:58:07.275Z,5.62
2018-07-05T11:02:52.750Z,5.55
2018-07-05T11:07:38.402Z,5.37
2018-07-05T11:12:24.141Z,5.40
2018-07-05T11:17:09.657Z,4.50
2018-07-05T11:21:55.139Z,4.28
2018-07-05T11:26:40.681Z,3.45
2018-07-05T11:31:26.286Z,3.55
2018-07-05T11:36:11.923Z,2.83
2018-07-05T11:40:57.658Z,3.40
2018-07-05T11:45:43.455Z,2.90
2018-07-05T11:50:29.015Z,2.62
2018-07-05T11:55:14.712Z,2.90
2018-07-05T12:00:00.458Z,2.60
2018-07-05T12:04:46.093Z,2.72
2018-07-05T12:09:31.783Z,2.80
2018-07-05T12:14:17.385Z,2.77
2018-07-05T12:19:03.177Z,2.72
2018-07-05T12:23:48.932Z,3.17
2018-07-05T12:28:34.992Z,3.00
2018-07-05T12:33:20.777Z,3.10
2018-07-05T12:38:06.518Z,2.60
2018-07-05T12:42:51.949Z,2.58
2018-07-05T12:47:37.829Z,2.80
2018-07-05T12:52:23.608Z,2.33
2018-07-05T12:57:09.338Z,3.02
2018-07-05T13:01:55.029Z,2.40
2018-07-05T13:06:41.005Z,2.62
2018-07-05T13:11:20.745Z,2.30
2018-07-05T13:16:06.491Z,2.50
2018-07-05T13:20:51.897Z,2.40
2018-07-05T13:25:37.601Z,2.60
2018-07-05T13:30:23.243Z,2.65
2018-07-05T13:35:08.742Z,3.30
2018-07-05T13:39:54.313Z,3.17
2018-07-05T13:44:39.890Z,3.00
2018-07-05T13:49:25.406Z,2.72
2018-07-05T13:54:10.897Z,2.42
2018-07-05T13:58:57.100Z,2.10
2018-07-05T14:03:42.682Z,2.60
2018-07-05T14:08:28.247Z,2.40
2018-07-05T14:13:13.897Z,2.50
2018-07-05T14:17:59.585Z,2.30
2018-07-05T14:22:46.751Z,2.80
2018-07-05T14:27:32.581Z,2.65
2018-07-05T14:32:18.066Z,2.80
2018-07-05T14:36:57.673Z,3.30
2018-07-05T14:41:43.163Z,2.70
2018-07-05T14:46:29.233Z,2.90
2018-07-05T14:51:14.813Z,2.35
2018-07-05T14:56:00.336Z,2.50
2018-07-05T15:00:46.038Z,2.80
2018-07-05T15:05:31.698Z,2.72
2018-07-05T15:10:17.205Z,2.55
2018-07-05T15:15:02.653Z,2.02
2018-07-05T15:19:48.873Z,2.25
2018-07-05T15:24:34.425Z,2.35
2018-07-05T15:29:19.950Z,2.22
2018-07-05T15:34:05.538Z,2.30
2018-07-05T15:38:51.003Z,2.52
2018-07-05T15:48:07.969Z,2.70
2018-07-05T15:52:53.530Z,2.92
2018-07-05T15:57:39.136Z,3.12
2018-07-05T16:02:24.638Z,3.22
2018-07-05T16:07:09.998Z,3.70
2018-07-05T16:11:55.395Z,5.03
2018-07-05T16:16:41.064Z,4.78
2018-07-05T16:21:26.857Z,3.72
2018-07-05T16:26:12.418Z,5.20
2018-07-05T16:30:57.993Z,5.72
2018-07-05T16:35:43.817Z,5.50
2018-07-05T16:40:29.541Z,5.35
2018-07-05T16:45:15.220Z,5.28
2018-07-05T16:50:00.682Z,5.10
2018-07-05T16:54:46.367Z,10.30
2018-07-05T16:59:31.749Z,5.12
2018-07-05T17:04:17.762Z,5.80
2018-07-05T17:09:03.902Z,6.40
2018-07-05T17:13:49.575Z,6.47
2018-07-05T17:18:35.051Z,6.03
2018-07-05T17:23:20.750Z,4.08
2018-07-05T17:28:06.303Z,4.70
2018-07-05T17:32:51.978Z,4.47
2018-07-05T17:37:37.614Z,4.90
2018-07-05T17:42:17.213Z,5.00
2018-07-05T17:47:02.868Z,3.33
2018-07-05T17:51:48.321Z,4.30
2018-07-05T17:56:33.901Z,4.40
2018-07-05T18:01:19.274Z,4.35
2018-07-05T18:06:04.909Z,5.58
2018-07-05T18:10:50.330Z,5.10
2018-07-05T18:15:35.958Z,4.33
2018-07-05T18:20:22.236Z,4.50
2018-07-05T18:25:07.665Z,4.75
2018-07-05T18:29:53.840Z,5.22
2018-07-05T18:34:39.776Z,5.20
2018-07-05T18:39:25.558Z,5.37
2018-07-05T18:44:11.060Z,6.05
2018-07-05T18:48:56.724Z,5.47
2018-07-05T18:53:42.167Z,4.30
2018-07-05T18:58:27.572Z,5.60
2018-07-05T19:03:13.033Z,6.03
2018-07-05T19:07:58.451Z,5.92
2018-07-05T19:12:44.021Z,7.05
2018-07-05T19:17:29.654Z,7.65
2018-07-05T19:22:15.161Z,7.58
2018-07-05T19:27:01.020Z,7.37
2018-07-05T19:31:46.719Z,6.17
2018-07-05T19:36:32.694Z,7.37
2018-07-05T19:41:18.162Z,7.55
2018-07-05T19:46:03.765Z,7.45
2018-07-05T19:50:49.038Z,8.73
2018-07-05T19:55:34.477Z,11.93
2018-07-05T20:00:20.196Z,8.20
2018-07-05T20:05:07.146Z,8.08
2018-07-05T20:09:53.094Z,8.23
2018-07-05T20:14:39.455Z,7.20
2018-07-05T20:19:25.593Z,7.78
2018-07-05T20:24:11.528Z,7.40
2018-07-05T20:28:57.363Z,8.15
2018-07-05T20:33:43.059Z,9.48
2018-07-05T20:38:29.316Z,9.10
2018-07-05T20:43:14.769Z,10.00
2018-07-05T20:48:00.519Z,10.32
2018-07-05T20:52:46.054Z,8.88
2018-07-05T20:57:31.704Z,8.53
2018-07-05T21:02:17.052Z,9.75
2018-07-05T21:07:02.806Z,8.80
2018-07-05T21:11:48.457Z,8.35
2018-07-05T21:16:34.084Z,9.80
2018-07-05T21:21:19.820Z,11.12
2018-07-05T21:26:05.209Z,10.43
2018-07-05T21:30:50.605Z,9.75
2018-07-05T21:35:36.173Z,10.15
2018-07-05T21:40:21.721Z,8.45
2018-07-05T21:45:01.180Z,8.13
2018-07-05T21:49:46.843Z,8.55
2018-07-05T21:54:32.294Z,8.28
2018-07-05T21:59:17.933Z,8.60
2018-07-05T22:04:03.373Z,8.20
2018-07-05T22:08:49.156Z,8.30
2018-07-05T22:13:34.631Z,7.97
2018-07-05T22:18:25.583Z,8.43
2018-07-05T22:23:10.492Z,9.20
2018-07-05T22:28:01.122Z,8.45
2018-07-05T22:32:46.702Z,8.98
2018-07-05T22:37:32.225Z,8.53
2018-07-05T22:42:17.738Z,8.10
2018-07-05T22:47:03.477Z,9.60
2018-07-05T22:51:48.859Z,9.80
2018-07-05T22:56:34.594Z,10.82
2018-07-05T23:01:20.286Z,11.60
2018-07-05T23:06:05.949Z,11.10
2018-07-05T23:10:51.633Z,10.53
2018-07-05T23:15:37.616Z,12.10
2018-07-05T23:20:22.981Z,12.65
2018-07-05T23:25:08.562Z,13.30
2018-07-05T23:29:54.081Z,13.93
2018-07-05T23:34:39.689Z,13.38
2018-07-05T23:39:25.245Z,11.93
2018-07-05T23:44:10.717Z,13.05
2018-07-05T23:48:56.645Z,14.45
2018-07-05T23:53:36.260Z,14.03
2018-07-05T23:58:21.701Z,13.18
